createdAt,value
2022-08-21T00:01:54.803Z,16.90
2022-08-21T00:04:29.311Z,16.80
2022-08-21T00:06:59.554Z,16.90
2022-08-21T00:09:28.286Z,16.80
2022-08-21T00:11:58.038Z,16.80
2022-08-21T00:14:26.402Z,16.80
2022-08-21T00:17:00.771Z,16.70
2022-08-21T00:19:29.651Z,16.70
2022-08-21T00:21:58.049Z,16.60
2022-08-21T00:24:27.291Z,16.60
2022-08-21T00:26:57.309Z,16.60
2022-08-21T00:29:25.663Z,16.70
2022-08-21T00:31:54.376Z,16.60
2022-08-21T00:34:22.758Z,16.60
2022-08-21T00:36:51.229Z,16.60
2022-08-21T00:39:19.723Z,16.60
2022-08-21T00:41:48.294Z,16.60
2022-08-21T00:44:18.231Z,16.50
2022-08-21T00:46:47.634Z,16.50
2022-08-21T00:49:16.821Z,16.50
2022-08-21T00:51:51.132Z,16.50
2022-08-21T00:54:22.736Z,16.50
2022-08-21T00:56:59.677Z,16.50
2022-08-21T00:59:34.193Z,16.40
2022-08-21T01:02:03.135Z,16.40
2022-08-21T01:04:31.545Z,16.30
2022-08-21T01:07:00.377Z,16.30
2022-08-21T01:09:29.003Z,16.30
2022-08-21T01:11:57.432Z,16.40
2022-08-21T01:14:25.776Z,16.40
2022-08-21T01:16:57.591Z,16.30
2022-08-21T01:19:28.389Z,16.20
2022-08-21T01:21:58.428Z,16.30
2022-08-21T01:24:26.731Z,16.20
2022-08-21T01:26:55.121Z,16.20
2022-08-21T01:29:34.256Z,16.20
2022-08-21T01:32:08.346Z,16.20
2022-08-21T01:34:42.597Z,16.20
2022-08-21T01:37:14.671Z,16.10
2022-08-21T01:39:48.247Z,16.10
2022-08-21T01:42:17.376Z,16.00
2022-08-21T01:44:46.554Z,16.10
2022-08-21T01:47:18.600Z,16.00
2022-08-21T01:49:47.848Z,16.00
2022-08-21T01:52:17.670Z,16.00
2022-08-21T01:54:46.222Z,15.90
2022-08-21T01:57:26.304Z,15.90
2022-08-21T01:59:55.366Z,15.90
2022-08-21T02:02:23.864Z,15.90
2022-08-21T02:04:52.231Z,15.90
2022-08-21T02:07:22.197Z,15.80
2022-08-21T02:09:50.604Z,15.90
2022-08-21T02:12:19.122Z,15.80
2022-08-21T02:14:47.503Z,15.70
2022-08-21T02:17:15.835Z,15.70
2022-08-21T02:19:44.624Z,15.70
2022-08-21T02:22:13.381Z,15.70
2022-08-21T02:24:53.886Z,15.70
2022-08-21T02:27:26.080Z,15.70
2022-08-21T02:29:57.971Z,15.70
2022-08-21T02:32:27.801Z,15.60
2022-08-21T02:34:56.502Z,15.60
2022-08-21T02:37:25.683Z,15.50
2022-08-21T02:39:55.522Z,15.50
2022-08-21T02:42:23.993Z,15.50
2022-08-21T02:44:52.335Z,15.50
2022-08-21T02:47:20.801Z,15.50
2022-08-21T02:49:49.350Z,15.10
2022-08-21T02:52:17.639Z,15.40
2022-08-21T02:54:46.140Z,15.40
2022-08-21T02:57:16.028Z,15.40
2022-08-21T02:59:47.962Z,15.30
2022-08-21T03:02:16.420Z,15.30
2022-08-21T03:04:46.845Z,15.40
2022-08-21T03:07:16.310Z,15.40
2022-08-21T03:09:45.537Z,15.30
2022-08-21T03:12:27.845Z,15.20
2022-08-21T03:14:58.789Z,15.30
2022-08-21T03:17:30.034Z,15.20
2022-08-21T03:19:59.186Z,15.20
2022-08-21T03:22:27.800Z,15.20
2022-08-21T03:24:59.780Z,15.10
2022-08-21T03:27:31.834Z,15.10
2022-08-21T03:30:00.806Z,15.10
2022-08-21T03:32:30.119Z,15.10
2022-08-21T03:34:58.518Z,15.20
2022-08-21T03:37:26.929Z,15.00
2022-08-21T03:39:55.876Z,15.10
2022-08-21T03:42:24.759Z,15.00
2022-08-21T03:44:54.520Z,15.00
2022-08-21T03:47:23.839Z,15.00
2022-08-21T03:49:52.578Z,15.00
2022-08-21T03:52:20.964Z,14.90
2022-08-21T03:54:49.385Z,14.90
2022-08-21T03:57:18.044Z,14.90
2022-08-21T03:59:47.289Z,14.90
2022-08-21T04:02:21.869Z,14.90
2022-08-21T04:04:50.357Z,14.90
2022-08-21T04:07:18.907Z,14.90
2022-08-21T04:09:47.469Z,14.90
2022-08-21T04:12:15.750Z,14.90
2022-08-21T04:14:44.596Z,14.90
2022-08-21T04:17:12.872Z,14.90
2022-08-21T04:19:42.544Z,14.90
2022-08-21T04:22:11.104Z,14.90
2022-08-21T04:24:39.925Z,14.90
2022-08-21T04:27:08.290Z,14.90
2022-08-21T04:29:39.946Z,14.90
2022-08-21T04:32:08.908Z,15.00
2022-08-21T04:34:37.404Z,15.00
2022-08-21T04:37:07.192Z,15.00
2022-08-21T04:39:35.610Z,15.00
2022-08-21T04:42:04.104Z,15.00
2022-08-21T04:44:33.546Z,15.00
2022-08-21T04:47:01.824Z,15.10
2022-08-21T04:49:30.056Z,15.10
2022-08-21T04:51:58.566Z,15.20
2022-08-21T04:54:28.606Z,15.10
2022-08-21T04:57:04.346Z,15.10
2022-08-21T04:59:38.609Z,15.10
2022-08-21T05:02:09.666Z,15.10
2022-08-21T05:04:45.931Z,15.10
2022-08-21T05:07:42.212Z,15.20
2022-08-21T05:10:13.813Z,15.20
2022-08-21T05:12:43.801Z,15.20
2022-08-21T05:15:14.039Z,15.30
2022-08-21T05:17:42.812Z,15.30
2022-08-21T05:20:14.038Z,15.30
2022-08-21T05:22:42.487Z,15.40
2022-08-21T05:25:13.691Z,15.40
2022-08-21T05:27:42.826Z,15.40
2022-08-21T05:30:13.007Z,15.50
2022-08-21T05:32:41.598Z,15.50
2022-08-21T05:35:11.264Z,15.60
2022-08-21T05:37:39.632Z,15.70
2022-08-21T05:40:21.582Z,15.70
2022-08-21T05:42:56.570Z,15.70
2022-08-21T05:45:41.652Z,15.80
2022-08-21T05:48:13.097Z,15.80
2022-08-21T05:50:42.050Z,15.90
2022-08-21T05:53:12.006Z,15.90
2022-08-21T05:55:46.266Z,16.00
2022-08-21T05:58:16.992Z,16.00
2022-08-21T06:00:48.567Z,16.10
2022-08-21T06:03:20.755Z,16.20
2022-08-21T06:05:49.556Z,16.20
2022-08-21T06:08:19.655Z,16.20
2022-08-21T06:10:51.540Z,16.30
2022-08-21T06:13:21.835Z,16.30
2022-08-21T06:15:50.921Z,16.30
2022-08-21T06:18:19.769Z,16.50
2022-08-21T06:20:48.577Z,16.40
2022-08-21T06:23:16.897Z,16.50
2022-08-21T06:25:45.198Z,16.60
2022-08-21T06:28:14.893Z,16.70
2022-08-21T06:30:43.676Z,16.70
2022-08-21T06:33:12.590Z,16.90
2022-08-21T06:35:41.766Z,16.90
2022-08-21T06:38:10.878Z,17.00
2022-08-21T06:40:43.908Z,17.10
2022-08-21T06:43:19.838Z,17.20
2022-08-21T06:45:48.478Z,17.20
2022-08-21T06:48:19.356Z,17.30
2022-08-21T06:50:48.847Z,17.40
2022-08-21T06:53:20.737Z,17.50
2022-08-21T06:55:50.237Z,17.60
2022-08-21T06:58:20.812Z,17.60
2022-08-21T07:00:52.257Z,17.70
2022-08-21T07:03:23.354Z,17.80
2022-08-21T07:05:52.211Z,17.90
2022-08-21T07:08:20.659Z,17.90
2022-08-21T07:10:50.665Z,17.90
2022-08-21T07:13:20.767Z,18.00
2022-08-21T07:15:49.464Z,18.10
2022-08-21T07:18:18.677Z,18.20
2022-08-21T07:20:47.764Z,18.30
2022-08-21T07:23:24.069Z,18.30
2022-08-21T07:25:52.592Z,18.40
2022-08-21T07:28:22.364Z,18.50
2022-08-21T07:30:54.470Z,18.50
2022-08-21T07:33:23.117Z,18.70
2022-08-21T07:35:51.550Z,18.70
2022-08-21T07:38:20.171Z,18.70
2022-08-21T07:40:49.786Z,18.90
2022-08-21T07:43:19.106Z,18.90
2022-08-21T07:45:50.221Z,19.00
2022-08-21T07:48:18.652Z,19.00
2022-08-21T07:50:47.200Z,19.20
2022-08-21T07:53:15.979Z,19.30
2022-08-21T07:55:44.887Z,19.30
2022-08-21T07:58:13.706Z,19.40
2022-08-21T08:00:42.396Z,19.50
2022-08-21T08:03:12.179Z,19.60
2022-08-21T08:05:40.863Z,19.70
2022-08-21T08:08:09.221Z,19.80
2022-08-21T08:10:38.888Z,19.90
2022-08-21T08:13:10.507Z,20.00
2022-08-21T08:15:39.555Z,20.20
2022-08-21T08:18:08.009Z,20.80
2022-08-21T08:20:38.031Z,21.30
2022-08-21T08:23:06.836Z,21.90
2022-08-21T08:25:36.623Z,22.60
2022-08-21T08:28:16.585Z,22.90
2022-08-21T08:30:46.735Z,23.30
2022-08-21T08:33:15.873Z,23.80
2022-08-21T08:35:49.297Z,24.20
2022-08-21T08:38:21.435Z,24.40
2022-08-21T08:41:01.759Z,24.50
2022-08-21T08:43:32.573Z,24.50
2022-08-21T08:46:08.518Z,24.60
2022-08-21T08:48:53.023Z,24.60
2022-08-21T08:51:29.322Z,24.90
2022-08-21T08:54:03.830Z,25.00
2022-08-21T08:56:35.409Z,25.20
2022-08-21T08:59:10.799Z,25.30
2022-08-21T09:01:39.661Z,25.40
2022-08-21T09:04:08.249Z,25.50
2022-08-21T09:07:00.483Z,25.60
2022-08-21T09:09:45.182Z,25.80
2022-08-21T09:12:27.438Z,25.60
2022-08-21T09:15:07.795Z,25.50
2022-08-21T09:17:55.384Z,25.40
2022-08-21T09:20:34.912Z,25.40
2022-08-21T09:23:26.063Z,25.40
2022-08-21T09:26:04.647Z,25.50
2022-08-21T09:28:35.808Z,25.90
2022-08-21T09:31:09.242Z,26.00
2022-08-21T09:33:39.439Z,26.00
2022-08-21T09:36:09.038Z,25.70
2022-08-21T09:38:40.082Z,25.40
2022-08-21T09:41:12.362Z,25.10
2022-08-21T09:43:40.946Z,25.20
2022-08-21T09:46:22.749Z,25.30
2022-08-21T09:48:54.733Z,25.70
2022-08-21T09:51:26.759Z,26.10
2022-08-21T09:54:02.518Z,26.50
2022-08-21T09:56:52.537Z,26.50
2022-08-21T09:59:34.205Z,26.30
2022-08-21T10:02:27.262Z,26.30
2022-08-21T10:04:59.132Z,26.20
2022-08-21T10:07:32.502Z,26.00
2022-08-21T10:10:08.213Z,25.90
2022-08-21T10:12:50.243Z,26.00
2022-08-21T10:15:27.453Z,25.90
2022-08-21T10:18:07.097Z,25.80
2022-08-21T10:20:44.974Z,25.80
2022-08-21T10:23:34.256Z,25.90
2022-08-21T10:26:14.532Z,26.20
2022-08-21T10:28:53.751Z,26.50
2022-08-21T10:31:35.396Z,26.60
2022-08-21T10:34:25.280Z,26.80
2022-08-21T10:37:10.961Z,26.80
2022-08-21T10:39:51.605Z,27.00
2022-08-21T10:42:39.680Z,27.20
2022-08-21T10:45:27.187Z,27.30
2022-08-21T10:47:59.227Z,27.30
2022-08-21T10:50:36.144Z,27.20
2022-08-21T10:53:36.503Z,27.00
2022-08-21T10:56:16.686Z,26.90
2022-08-21T10:58:55.856Z,26.80
2022-08-21T11:01:29.861Z,26.80
2022-08-21T11:04:13.629Z,27.00
2022-08-21T11:06:49.531Z,27.10
2022-08-21T11:09:24.958Z,27.20
2022-08-21T11:11:59.259Z,27.20
2022-08-21T11:14:50.818Z,27.20
2022-08-21T11:17:26.699Z,27.00
2022-08-21T11:20:04.302Z,27.00
2022-08-21T11:22:42.382Z,26.80
2022-08-21T11:25:22.165Z,26.90
2022-08-21T11:27:59.595Z,27.10
2022-08-21T11:30:46.292Z,27.20
2022-08-21T11:33:37.392Z,27.50
2022-08-21T11:36:17.447Z,27.60
2022-08-21T11:38:56.096Z,27.70
2022-08-21T11:41:31.689Z,27.60
2022-08-21T11:44:14.076Z,27.50
2022-08-21T11:46:52.609Z,27.40
2022-08-21T11:49:37.404Z,27.30
2022-08-21T11:52:19.484Z,27.30
2022-08-21T11:54:55.177Z,27.50
2022-08-21T11:57:29.863Z,27.50
2022-08-21T12:00:18.496Z,27.60
2022-08-21T12:02:53.309Z,27.70
2022-08-21T12:05:42.808Z,27.80
2022-08-21T12:08:28.290Z,27.70
2022-08-21T12:11:06.572Z,27.80
2022-08-21T12:13:42.167Z,27.60
2022-08-21T12:16:14.805Z,27.40
2022-08-21T12:18:47.430Z,27.30
2022-08-21T12:21:28.249Z,27.40
2022-08-21T12:24:18.035Z,27.50
2022-08-21T12:26:54.040Z,27.50
2022-08-21T12:29:28.514Z,27.40
2022-08-21T12:32:03.656Z,27.50
2022-08-21T12:34:40.109Z,27.40
2022-08-21T12:37:26.855Z,27.30
2022-08-21T12:40:00.690Z,27.40
2022-08-21T12:42:39.581Z,27.50
2022-08-21T12:45:19.401Z,27.60
2022-08-21T12:47:53.018Z,27.70
2022-08-21T12:50:34.166Z,27.50
2022-08-21T12:53:18.575Z,27.50
2022-08-21T12:55:50.405Z,27.50
2022-08-21T12:58:23.886Z,27.80
2022-08-21T13:00:55.406Z,28.20
2022-08-21T13:03:25.548Z,28.40
2022-08-21T13:05:55.988Z,28.60
2022-08-21T13:08:28.745Z,28.90
2022-08-21T13:11:09.054Z,29.00
2022-08-21T13:13:46.993Z,28.90
2022-08-21T13:16:26.392Z,28.90
2022-08-21T13:18:59.060Z,28.90
2022-08-21T13:21:34.696Z,28.50
2022-08-21T13:24:40.861Z,28.20
2022-08-21T13:27:17.139Z,27.90
2022-08-21T13:29:47.487Z,27.60
2022-08-21T13:32:28.632Z,27.60
2022-08-21T13:34:57.040Z,27.50
2022-08-21T13:37:29.117Z,27.50
2022-08-21T13:39:57.984Z,27.60
2022-08-21T13:42:26.648Z,27.70
2022-08-21T13:44:56.138Z,27.70
2022-08-21T13:47:24.669Z,27.70
2022-08-21T13:49:59.136Z,27.60
2022-08-21T13:52:30.007Z,27.40
2022-08-21T13:55:01.565Z,27.70
2022-08-21T13:57:33.451Z,27.90
2022-08-21T14:00:21.965Z,27.90
2022-08-21T14:02:54.236Z,28.00
2022-08-21T14:05:27.248Z,27.90
2022-08-21T14:08:08.500Z,27.90
2022-08-21T14:10:43.972Z,27.80
2022-08-21T14:13:35.868Z,27.90
2022-08-21T14:16:17.236Z,27.80
2022-08-21T14:18:48.827Z,27.60
2022-08-21T14:21:31.460Z,27.60
2022-08-21T14:24:11.668Z,27.30
2022-08-21T14:26:49.147Z,27.20
2022-08-21T14:29:20.646Z,27.20
2022-08-21T14:31:54.897Z,27.00
2022-08-21T14:34:24.522Z,26.70
2022-08-21T14:36:53.386Z,26.40
2022-08-21T14:39:23.544Z,26.30
2022-08-21T14:41:59.658Z,26.40
2022-08-21T14:44:28.078Z,26.50
2022-08-21T14:46:57.471Z,26.70
2022-08-21T14:49:29.002Z,26.70
2022-08-21T14:51:59.342Z,26.60
2022-08-21T14:54:32.730Z,26.90
2022-08-21T14:57:09.633Z,27.00
2022-08-21T14:59:39.707Z,27.00
2022-08-21T15:02:10.276Z,27.10
2022-08-21T15:04:38.798Z,27.30
2022-08-21T15:07:07.578Z,27.40
2022-08-21T15:09:37.244Z,27.30
2022-08-21T15:12:07.843Z,27.40
2022-08-21T15:14:41.080Z,27.60
2022-08-21T15:17:11.661Z,27.80
2022-08-21T15:19:40.553Z,27.90
2022-08-21T15:22:15.500Z,28.10
2022-08-21T15:24:49.061Z,28.20
2022-08-21T15:27:20.753Z,28.30
2022-08-21T15:29:49.182Z,28.30
2022-08-21T15:32:23.319Z,28.20
2022-08-21T15:34:52.567Z,27.90
2022-08-21T15:37:21.964Z,27.20
2022-08-21T15:39:54.117Z,27.00
2022-08-21T15:42:23.474Z,26.90
2022-08-21T15:44:52.207Z,26.80
2022-08-21T15:47:24.205Z,26.40
2022-08-21T15:49:52.587Z,26.20
2022-08-21T15:52:23.175Z,26.20
2022-08-21T15:54:53.295Z,26.20
2022-08-21T15:57:25.536Z,26.10
2022-08-21T15:59:59.338Z,26.30
2022-08-21T16:02:31.442Z,26.50
2022-08-21T16:05:00.790Z,26.70
2022-08-21T16:07:29.380Z,26.50
2022-08-21T16:09:59.375Z,26.50
2022-08-21T16:12:32.903Z,26.50
2022-08-21T16:15:03.378Z,26.60
2022-08-21T16:17:36.016Z,26.40
2022-08-21T16:20:11.028Z,26.30
2022-08-21T16:22:44.743Z,26.20
2022-08-21T16:25:17.570Z,26.30
2022-08-21T16:27:51.540Z,26.30
2022-08-21T16:30:22.227Z,25.90
2022-08-21T16:32:52.026Z,25.70
2022-08-21T16:35:22.596Z,25.70
2022-08-21T16:37:53.366Z,25.70
2022-08-21T16:40:24.099Z,25.70
2022-08-21T16:42:52.543Z,25.40
2022-08-21T16:45:22.710Z,25.20
2022-08-21T16:47:51.357Z,25.10
2022-08-21T16:50:24.325Z,24.90
2022-08-21T16:52:54.313Z,24.90
2022-08-21T16:55:24.075Z,24.90
2022-08-21T16:57:52.581Z,25.00
2022-08-21T17:00:21.214Z,24.90
2022-08-21T17:02:55.971Z,24.90
2022-08-21T17:05:24.601Z,24.90
2022-08-21T17:07:52.967Z,24.80
2022-08-21T17:10:23.397Z,24.70
2022-08-21T17:12:58.540Z,24.70
2022-08-21T17:15:30.651Z,24.60
2022-08-21T17:17:59.341Z,24.50
2022-08-21T17:20:27.972Z,24.50
2022-08-21T17:22:56.507Z,24.60
2022-08-21T17:25:27.546Z,24.70
2022-08-21T17:27:56.753Z,24.50
2022-08-21T17:30:25.745Z,24.30
2022-08-21T17:32:58.245Z,24.30
2022-08-21T17:35:27.602Z,24.30
2022-08-21T17:37:55.960Z,24.10
2022-08-21T17:40:27.218Z,23.90
2022-08-21T17:42:55.555Z,23.80
2022-08-21T17:45:24.848Z,23.90
2022-08-21T17:47:53.336Z,23.80
2022-08-21T17:50:23.174Z,23.60
2022-08-21T17:52:51.922Z,23.50
2022-08-21T17:55:21.479Z,23.30
2022-08-21T17:57:53.259Z,23.30
2022-08-21T18:00:24.192Z,23.30
2022-08-21T18:03:01.475Z,23.20
2022-08-21T18:05:30.954Z,23.30
2022-08-21T18:07:59.484Z,23.30
2022-08-21T18:10:28.248Z,23.40
2022-08-21T18:12:58.916Z,23.20
2022-08-21T18:15:29.672Z,23.20
2022-08-21T18:17:58.357Z,23.30
2022-08-21T18:20:26.696Z,23.20
2022-08-21T18:22:55.433Z,23.10
2022-08-21T18:25:24.157Z,23.00
2022-08-21T18:27:52.970Z,23.00
2022-08-21T18:30:25.285Z,22.90
2022-08-21T18:32:55.361Z,23.00
2022-08-21T18:35:24.369Z,23.00
2022-08-21T18:37:53.040Z,23.10
2022-08-21T18:40:21.751Z,23.00
2022-08-21T18:42:55.238Z,23.10
2022-08-21T18:45:26.246Z,23.00
2022-08-21T18:47:57.989Z,23.00
2022-08-21T18:50:29.033Z,23.00
2022-08-21T18:52:57.737Z,23.00
2022-08-21T18:58:16.737Z,23.00
2022-08-21T19:00:51.778Z,22.90
2022-08-21T19:03:24.019Z,22.90
2022-08-21T19:05:53.728Z,22.90
2022-08-21T19:08:24.733Z,22.90
2022-08-21T19:10:58.103Z,22.90
2022-08-21T19:13:28.466Z,22.80
2022-08-21T19:16:02.953Z,22.80
2022-08-21T19:18:35.995Z,22.70
2022-08-21T19:21:05.234Z,22.70
2022-08-21T19:23:37.038Z,22.60
2022-08-21T19:26:10.850Z,22.60
2022-08-21T19:28:44.731Z,22.60
2022-08-21T19:31:23.611Z,22.60
2022-08-21T19:34:01.642Z,22.50
2022-08-21T19:36:30.300Z,22.40
2022-08-21T19:38:59.408Z,22.40
2022-08-21T19:41:37.020Z,22.40
2022-08-21T19:44:08.900Z,22.30
2022-08-21T19:46:42.900Z,22.20
2022-08-21T19:49:16.615Z,22.10
2022-08-21T19:51:48.462Z,22.10
2022-08-21T19:54:24.938Z,22.10
2022-08-21T19:56:58.330Z,22.00
2022-08-21T19:59:28.184Z,21.90
2022-08-21T20:01:58.131Z,21.80
2022-08-21T20:04:27.406Z,21.80
2022-08-21T20:06:55.982Z,21.70
2022-08-21T20:09:26.669Z,21.80
2022-08-21T20:11:59.458Z,21.80
2022-08-21T20:14:32.794Z,21.70
2022-08-21T20:17:10.550Z,21.70
2022-08-21T20:19:41.489Z,21.60
2022-08-21T20:22:12.059Z,21.60
2022-08-21T20:24:42.110Z,21.60
2022-08-21T20:27:14.928Z,21.60
2022-08-21T20:29:44.486Z,21.60
2022-08-21T20:32:15.126Z,21.60
2022-08-21T20:34:44.925Z,21.60
2022-08-21T20:37:14.017Z,21.60
2022-08-21T20:40:06.249Z,21.50
2022-08-21T20:42:35.366Z,21.60
2022-08-21T20:45:08.335Z,21.50
2022-08-21T20:47:39.202Z,21.50
2022-08-21T20:50:14.075Z,21.50
2022-08-21T20:52:43.181Z,21.40
2022-08-21T20:55:16.160Z,21.30
2022-08-21T21:00:43.157Z,21.30
2022-08-21T21:03:15.363Z,21.20
2022-08-21T21:05:51.212Z,21.30
2022-08-21T21:08:25.996Z,21.20
2022-08-21T21:11:03.061Z,21.20
2022-08-21T21:13:37.480Z,21.20
2022-08-21T21:16:14.702Z,21.20
2022-08-21T21:18:50.623Z,21.20
2022-08-21T21:21:33.157Z,21.20
2022-08-21T21:24:08.340Z,21.20
2022-08-21T21:26:48.828Z,21.10
2022-08-21T21:29:24.683Z,21.20
2022-08-21T21:31:54.230Z,21.10
2022-08-21T21:37:25.341Z,21.10
2022-08-21T21:40:03.676Z,21.10
2022-08-21T21:42:51.659Z,21.10
2022-08-21T21:45:25.928Z,21.10
2022-08-21T21:48:07.693Z,21.10
2022-08-21T21:50:54.180Z,21.10
2022-08-21T21:53:52.761Z,21.10
2022-08-21T21:56:33.013Z,21.10
2022-08-21T21:59:24.031Z,21.10
2022-08-21T22:02:03.074Z,21.10
2022-08-21T22:04:38.833Z,21.10
2022-08-21T22:07:39.966Z,21.10
2022-08-21T22:10:30.608Z,21.10
2022-08-21T22:13:11.072Z,21.00
2022-08-21T22:15:41.487Z,20.90
2022-08-21T22:18:13.245Z,21.00
2022-08-21T22:20:52.632Z,21.00
2022-08-21T22:23:28.982Z,21.00
2022-08-21T22:26:07.402Z,21.00
2022-08-21T22:28:42.772Z,21.00
2022-08-21T22:31:21.049Z,21.00
2022-08-21T22:34:07.223Z,21.00
2022-08-21T22:36:58.388Z,21.00
2022-08-21T22:39:38.535Z,21.00
2022-08-21T22:42:13.573Z,20.90
2022-08-21T22:44:52.995Z,20.90
2022-08-21T22:47:24.913Z,20.90
2022-08-21T22:49:59.641Z,20.90
2022-08-21T22:52:35.299Z,20.90
2022-08-21T22:55:24.652Z,20.90
2022-08-21T22:58:11.477Z,20.90
2022-08-21T23:00:50.454Z,20.80
2022-08-21T23:06:31.178Z,20.90
2022-08-21T23:09:01.365Z,20.90
2022-08-21T23:11:41.005Z,20.80
2022-08-21T23:14:14.282Z,20.80
2022-08-21T23:16:54.895Z,20.80
2022-08-21T23:19:43.130Z,20.80
2022-08-21T23:22:36.288Z,20.80
2022-08-21T23:25:40.216Z,20.80
2022-08-21T23:28:24.723Z,20.80
2022-08-21T23:31:11.525Z,20.80
2022-08-21T23:34:15.951Z,20.80
2022-08-21T23:37:24.715Z,20.70
2022-08-21T23:40:35.630Z,20.70
2022-08-21T23:43:22.976Z,20.60
2022-08-21T23:46:17.172Z,20.50
2022-08-21T23:48:57.854Z,20.40
2022-08-21T23:51:37.421Z,20.40
2022-08-21T23:54:22.575Z,20.30
2022-08-21T23:57:08.788Z,20.30
2022-08-21T23:59:57.479Z,20.20
